YLRE Airport Information

Runway Information
Runway 04 Length 6352 ft width 98 ft
Elevation 626 ft Threshold 0 ft Heading 47
Runway 22 Length 6352 ft Width 98 ft
Elevation 624 ft Threshold 0 ft Heading 227
Runway 09 Length 2953 ft width 59 ft
Elevation 624 ft Threshold 0 ft Heading 93
Runway 27 Length 2953 ft Width 59 ft
Elevation 625 ft Threshold 0 ft Heading 273
Airport Frequencies
Type CTAF Name CTAF Frequency 126.7 MHZ
Type FSS Name BRISBANE C Frequency 122.1 MHZ
Airport Navaids
Type VOR Name Longreach Frequency 117900 KHZ
Type NDB Name Longreach Frequency 353 KHZ
Airport Weather Information & NOTAM
ADDS - METARS form results

(0026 UTC 28 November 2021)
Data provider http://aviationweather.gov/metar/data/
 
METAR text: YLRE 280000Z AUTO 11007KT 040V160 9999 // NCD 33/15 Q1011
Conditions at: YLRE (LONGREACH ARPT , AU) observed 0000 UTC 28 November 2021
Temperature: 33.0°C (91°F)
Dewpoint: 15.0°C (59°F) [RH = 34%]
Pressure (altimeter): 29.85 inches Hg (1011.0 mb)
Winds: from the ESE (110 degrees) at 8 MPH (7 knots; 3.6 m/s)
Visibility: 6 or more miles (10+ km)
Ceiling: at least 12,000 feet AGL
Clouds: sky clear below 12,000 feet AGL
Weather: no significant weather observed at this time